sensor_id;sensor_type;location;lat;lon;timestamp;P1;durP1;ratioP1;P2;durP2;ratioP2
12433;SDS011;6281;49.038;8.372;2024-01-30T00:02:05;10.23;;;6.90;;
12433;SDS011;6281;49.038;8.372;2024-01-30T00:04:32;15.93;;;8.43;;
12433;SDS011;6281;49.038;8.372;2024-01-30T00:07:00;10.47;;;7.27;;
12433;SDS011;6281;49.038;8.372;2024-01-30T00:09:28;13.10;;;7.77;;
12433;SDS011;6281;49.038;8.372;2024-01-30T00:11:55;11.10;;;7.47;;
12433;SDS011;6281;49.038;8.372;2024-01-30T00:14:22;11.43;;;8.20;;
12433;SDS011;6281;49.038;8.372;2024-01-30T00:16:50;10.83;;;7.87;;
12433;SDS011;6281;49.038;8.372;2024-01-30T00:19:17;11.43;;;8.20;;
12433;SDS011;6281;49.038;8.372;2024-01-30T00:21:44;11.10;;;7.30;;
12433;SDS011;6281;49.038;8.372;2024-01-30T00:24:12;12.17;;;7.43;;
12433;SDS011;6281;49.038;8.372;2024-01-30T00:26:39;10.00;;;7.50;;
12433;SDS011;6281;49.038;8.372;2024-01-30T00:29:06;13.20;;;7.87;;
12433;SDS011;6281;49.038;8.372;2024-01-30T00:31:33;10.00;;;7.30;;
12433;SDS011;6281;49.038;8.372;2024-01-30T00:34:01;11.80;;;7.90;;
12433;SDS011;6281;49.038;8.372;2024-01-30T00:36:28;11.53;;;8.20;;
12433;SDS011;6281;49.038;8.372;2024-01-30T00:38:55;9.47;;;7.07;;
12433;SDS011;6281;49.038;8.372;2024-01-30T00:41:23;11.53;;;8.17;;
12433;SDS011;6281;49.038;8.372;2024-01-30T00:43:50;12.20;;;7.83;;
12433;SDS011;6281;49.038;8.372;2024-01-30T00:46:17;10.30;;;7.70;;
12433;SDS011;6281;49.038;8.372;2024-01-30T00:48:44;14.77;;;7.87;;
12433;SDS011;6281;49.038;8.372;2024-01-30T00:51:11;12.03;;;7.50;;
12433;SDS011;6281;49.038;8.372;2024-01-30T00:53:38;9.70;;;6.93;;
12433;SDS011;6281;49.038;8.372;2024-01-30T00:56:06;9.93;;;7.30;;
12433;SDS011;6281;49.038;8.372;2024-01-30T00:58:35;10.87;;;7.47;;
12433;SDS011;6281;49.038;8.372;2024-01-30T01:01:02;10.77;;;7.27;;
12433;SDS011;6281;49.038;8.372;2024-01-30T01:03:29;10.90;;;8.03;;
12433;SDS011;6281;49.038;8.372;2024-01-30T01:05:56;10.97;;;7.80;;
12433;SDS011;6281;49.038;8.372;2024-01-30T01:08:23;10.90;;;7.60;;
12433;SDS011;6281;49.038;8.372;2024-01-30T01:10:50;10.77;;;7.33;;
12433;SDS011;6281;49.038;8.372;2024-01-30T01:13:17;10.50;;;7.33;;
12433;SDS011;6281;49.038;8.372;2024-01-30T01:15:45;10.80;;;7.57;;
12433;SDS011;6281;49.038;8.372;2024-01-30T01:18:12;9.53;;;7.50;;
12433;SDS011;6281;49.038;8.372;2024-01-30T01:20:39;12.10;;;7.73;;
12433;SDS011;6281;49.038;8.372;2024-01-30T01:23:06;10.33;;;7.43;;
12433;SDS011;6281;49.038;8.372;2024-01-30T01:25:33;10.07;;;7.03;;
12433;SDS011;6281;49.038;8.372;2024-01-30T01:28:00;11.47;;;7.70;;
12433;SDS011;6281;49.038;8.372;2024-01-30T01:30:27;8.30;;;6.80;;
12433;SDS011;6281;49.038;8.372;2024-01-30T01:32:55;10.33;;;7.77;;
12433;SDS011;6281;49.038;8.372;2024-01-30T01:35:26;10.60;;;7.97;;
12433;SDS011;6281;49.038;8.372;2024-01-30T01:37:53;11.53;;;7.30;;
12433;SDS011;6281;49.038;8.372;2024-01-30T01:40:22;12.30;;;8.03;;
12433;SDS011;6281;49.038;8.372;2024-01-30T01:42:49;10.37;;;7.20;;
12433;SDS011;6281;49.038;8.372;2024-01-30T01:45:17;12.57;;;7.97;;
12433;SDS011;6281;49.038;8.372;2024-01-30T01:47:44;11.97;;;7.80;;
12433;SDS011;6281;49.038;8.372;2024-01-30T01:50:23;10.17;;;7.20;;
12433;SDS011;6281;49.038;8.372;2024-01-30T01:53:02;11.33;;;7.70;;
12433;SDS011;6281;49.038;8.372;2024-01-30T01:55:45;10.17;;;7.17;;
12433;SDS011;6281;49.038;8.372;2024-01-30T01:59:04;8.67;;;7.13;;
12433;SDS011;6281;49.038;8.372;2024-01-30T02:05:24;10.63;;;7.17;;
12433;SDS011;6281;49.038;8.372;2024-01-30T02:08:24;12.67;;;7.53;;
12433;SDS011;6281;49.038;8.372;2024-01-30T02:15:13;12.40;;;8.13;;
12433;SDS011;6281;49.038;8.372;2024-01-30T02:17:54;10.83;;;6.73;;
12433;SDS011;6281;49.038;8.372;2024-01-30T02:31:04;10.20;;;7.70;;
12433;SDS011;6281;49.038;8.372;2024-01-30T02:35:52;9.47;;;6.97;;
12433;SDS011;6281;49.038;8.372;2024-01-30T02:37:24;11.47;;;6.50;;
12433;SDS011;6281;49.038;8.372;2024-01-30T02:40:36;11.23;;;7.30;;
12433;SDS011;6281;49.038;8.372;2024-01-30T02:53:44;11.00;;;7.10;;
12433;SDS011;6281;49.038;8.372;2024-01-30T02:59:54;10.17;;;7.30;;
12433;SDS011;6281;49.038;8.372;2024-01-30T03:06:23;15.53;;;6.97;;
12433;SDS011;6281;49.038;8.372;2024-01-30T03:12:04;10.23;;;6.67;;
12433;SDS011;6281;49.038;8.372;2024-01-30T03:15:24;9.83;;;6.57;;
12433;SDS011;6281;49.038;8.372;2024-01-30T03:21:34;10.30;;;6.77;;
12433;SDS011;6281;49.038;8.372;2024-01-30T03:31:24;10.47;;;7.00;;
12433;SDS011;6281;49.038;8.372;2024-01-30T03:47:23;10.73;;;7.03;;
12433;SDS011;6281;49.038;8.372;2024-01-30T03:52:56;12.80;;;6.93;;
12433;SDS011;6281;49.038;8.372;2024-01-30T03:56:04;12.67;;;7.03;;
12433;SDS011;6281;49.038;8.372;2024-01-30T04:01:54;11.40;;;7.03;;
12433;SDS011;6281;49.038;8.372;2024-01-30T04:21:45;11.90;;;7.23;;
12433;SDS011;6281;49.038;8.372;2024-01-30T04:27:03;10.80;;;7.20;;
12433;SDS011;6281;49.038;8.372;2024-01-30T04:30:03;9.57;;;6.70;;
12433;SDS011;6281;49.038;8.372;2024-01-30T04:31:45;11.80;;;6.97;;
12433;SDS011;6281;49.038;8.372;2024-01-30T04:34:35;11.53;;;7.20;;
12433;SDS011;6281;49.038;8.372;2024-01-30T04:42:54;9.17;;;6.90;;
12433;SDS011;6281;49.038;8.372;2024-01-30T04:46:33;11.87;;;7.20;;
12433;SDS011;6281;49.038;8.372;2024-01-30T04:48:10;12.47;;;6.90;;
12433;SDS011;6281;49.038;8.372;2024-01-30T04:54:13;11.53;;;7.70;;
12433;SDS011;6281;49.038;8.372;2024-01-30T04:56:54;12.50;;;8.10;;
12433;SDS011;6281;49.038;8.372;2024-01-30T04:59:44;10.60;;;7.17;;
12433;SDS011;6281;49.038;8.372;2024-01-30T05:04:32;9.83;;;6.90;;
12433;SDS011;6281;49.038;8.372;2024-01-30T05:07:32;11.40;;;6.80;;
12433;SDS011;6281;49.038;8.372;2024-01-30T05:08:43;14.00;;;7.87;;
12433;SDS011;6281;49.038;8.372;2024-01-30T05:18:04;9.40;;;6.63;;
12433;SDS011;6281;49.038;8.372;2024-01-30T05:21:20;11.43;;;7.40;;
12433;SDS011;6281;49.038;8.372;2024-01-30T05:30:37;9.80;;;6.77;;
12433;SDS011;6281;49.038;8.372;2024-01-30T05:33:12;9.77;;;6.83;;
12433;SDS011;6281;49.038;8.372;2024-01-30T05:35:39;11.77;;;7.63;;
12433;SDS011;6281;49.038;8.372;2024-01-30T05:38:06;11.07;;;7.30;;
12433;SDS011;6281;49.038;8.372;2024-01-30T05:40:33;12.47;;;7.20;;
12433;SDS011;6281;49.038;8.372;2024-01-30T05:43:06;12.67;;;7.17;;
12433;SDS011;6281;49.038;8.372;2024-01-30T05:45:34;8.63;;;6.60;;
12433;SDS011;6281;49.038;8.372;2024-01-30T05:48:02;11.50;;;7.33;;
12433;SDS011;6281;49.038;8.372;2024-01-30T05:50:30;9.63;;;6.93;;
12433;SDS011;6281;49.038;8.372;2024-01-30T05:52:59;10.20;;;6.60;;
12433;SDS011;6281;49.038;8.372;2024-01-30T05:55:28;11.10;;;7.07;;
12433;SDS011;6281;49.038;8.372;2024-01-30T05:57:56;8.53;;;6.70;;
12433;SDS011;6281;49.038;8.372;2024-01-30T06:06:03;10.00;;;6.90;;
12433;SDS011;6281;49.038;8.372;2024-01-30T06:07:44;9.57;;;6.60;;
12433;SDS011;6281;49.038;8.372;2024-01-30T06:10:44;8.57;;;5.90;;
12433;SDS011;6281;49.038;8.372;2024-01-30T06:22:56;8.40;;;6.23;;
12433;SDS011;6281;49.038;8.372;2024-01-30T06:25:22;10.13;;;6.30;;
12433;SDS011;6281;49.038;8.372;2024-01-30T06:27:49;8.53;;;6.50;;
12433;SDS011;6281;49.038;8.372;2024-01-30T06:30:16;14.00;;;7.00;;
12433;SDS011;6281;49.038;8.372;2024-01-30T06:32:43;10.60;;;6.63;;
12433;SDS011;6281;49.038;8.372;2024-01-30T06:35:10;9.20;;;6.57;;
12433;SDS011;6281;49.038;8.372;2024-01-30T06:37:37;10.23;;;6.60;;
12433;SDS011;6281;49.038;8.372;2024-01-30T06:40:06;10.50;;;6.40;;
12433;SDS011;6281;49.038;8.372;2024-01-30T06:42:34;11.30;;;6.90;;
12433;SDS011;6281;49.038;8.372;2024-01-30T06:45:00;11.50;;;7.17;;
12433;SDS011;6281;49.038;8.372;2024-01-30T06:47:27;10.67;;;7.33;;
12433;SDS011;6281;49.038;8.372;2024-01-30T06:49:56;10.50;;;7.80;;
12433;SDS011;6281;49.038;8.372;2024-01-30T06:52:22;14.37;;;8.47;;
12433;SDS011;6281;49.038;8.372;2024-01-30T06:54:49;12.83;;;7.93;;
12433;SDS011;6281;49.038;8.372;2024-01-30T06:57:17;12.47;;;8.63;;
12433;SDS011;6281;49.038;8.372;2024-01-30T06:59:44;14.07;;;9.20;;
12433;SDS011;6281;49.038;8.372;2024-01-30T07:02:11;14.73;;;10.00;;
12433;SDS011;6281;49.038;8.372;2024-01-30T07:04:38;14.30;;;9.23;;
12433;SDS011;6281;49.038;8.372;2024-01-30T07:07:06;12.57;;;8.20;;
12433;SDS011;6281;49.038;8.372;2024-01-30T07:09:37;11.67;;;8.07;;
12433;SDS011;6281;49.038;8.372;2024-01-30T07:12:04;13.07;;;7.00;;
12433;SDS011;6281;49.038;8.372;2024-01-30T07:14:33;11.50;;;7.77;;
12433;SDS011;6281;49.038;8.372;2024-01-30T07:17:00;10.17;;;6.50;;
12433;SDS011;6281;49.038;8.372;2024-01-30T07:19:28;10.50;;;7.43;;
12433;SDS011;6281;49.038;8.372;2024-01-30T07:21:54;11.83;;;6.90;;
12433;SDS011;6281;49.038;8.372;2024-01-30T07:24:21;12.50;;;6.80;;
12433;SDS011;6281;49.038;8.372;2024-01-30T07:26:48;12.03;;;7.00;;
12433;SDS011;6281;49.038;8.372;2024-01-30T07:29:15;9.07;;;7.03;;
12433;SDS011;6281;49.038;8.372;2024-01-30T07:31:43;9.33;;;6.70;;
12433;SDS011;6281;49.038;8.372;2024-01-30T07:34:09;12.37;;;6.90;;
12433;SDS011;6281;49.038;8.372;2024-01-30T07:36:36;10.97;;;6.40;;
12433;SDS011;6281;49.038;8.372;2024-01-30T07:39:03;15.77;;;6.70;;
12433;SDS011;6281;49.038;8.372;2024-01-30T07:41:30;10.20;;;6.73;;
12433;SDS011;6281;49.038;8.372;2024-01-30T07:43:56;9.73;;;6.93;;
12433;SDS011;6281;49.038;8.372;2024-01-30T07:46:23;8.33;;;6.40;;
12433;SDS011;6281;49.038;8.372;2024-01-30T07:48:52;8.97;;;6.50;;
12433;SDS011;6281;49.038;8.372;2024-01-30T07:51:20;10.00;;;6.17;;
12433;SDS011;6281;49.038;8.372;2024-01-30T07:53:47;10.73;;;6.40;;
12433;SDS011;6281;49.038;8.372;2024-01-30T07:56:14;8.80;;;6.27;;
12433;SDS011;6281;49.038;8.372;2024-01-30T07:58:41;9.30;;;6.13;;
12433;SDS011;6281;49.038;8.372;2024-01-30T08:01:08;7.70;;;5.97;;
12433;SDS011;6281;49.038;8.372;2024-01-30T08:03:34;9.03;;;6.10;;
12433;SDS011;6281;49.038;8.372;2024-01-30T08:06:03;8.83;;;6.90;;
12433;SDS011;6281;49.038;8.372;2024-01-30T08:08:31;8.30;;;6.27;;
12433;SDS011;6281;49.038;8.372;2024-01-30T08:10:58;11.43;;;6.90;;
12433;SDS011;6281;49.038;8.372;2024-01-30T08:13:25;8.67;;;6.23;;
12433;SDS011;6281;49.038;8.372;2024-01-30T08:15:52;11.33;;;6.60;;
12433;SDS011;6281;49.038;8.372;2024-01-30T08:18:18;12.17;;;7.23;;
12433;SDS011;6281;49.038;8.372;2024-01-30T08:20:45;10.00;;;6.80;;
12433;SDS011;6281;49.038;8.372;2024-01-30T08:23:13;9.30;;;6.10;;
12433;SDS011;6281;49.038;8.372;2024-01-30T08:25:40;10.60;;;6.33;;
12433;SDS011;6281;49.038;8.372;2024-01-30T08:28:07;7.20;;;5.60;;
12433;SDS011;6281;49.038;8.372;2024-01-30T08:30:34;7.93;;;6.37;;
12433;SDS011;6281;49.038;8.372;2024-01-30T08:33:01;11.23;;;6.83;;
12433;SDS011;6281;49.038;8.372;2024-01-30T08:35:27;10.97;;;7.13;;
12433;SDS011;6281;49.038;8.372;2024-01-30T08:37:56;10.10;;;6.87;;
12433;SDS011;6281;49.038;8.372;2024-01-30T08:40:24;8.37;;;5.90;;
12433;SDS011;6281;49.038;8.372;2024-01-30T08:42:51;8.13;;;6.37;;
12433;SDS011;6281;49.038;8.372;2024-01-30T08:45:18;11.73;;;7.07;;
12433;SDS011;6281;49.038;8.372;2024-01-30T08:47:45;10.97;;;7.23;;
12433;SDS011;6281;49.038;8.372;2024-01-30T08:50:12;9.27;;;6.80;;
12433;SDS011;6281;49.038;8.372;2024-01-30T08:52:38;9.43;;;7.33;;
12433;SDS011;6281;49.038;8.372;2024-01-30T08:55:05;15.33;;;7.47;;
12433;SDS011;6281;49.038;8.372;2024-01-30T08:57:34;13.23;;;8.40;;
12433;SDS011;6281;49.038;8.372;2024-01-30T09:00:01;11.07;;;7.77;;
12433;SDS011;6281;49.038;8.372;2024-01-30T09:02:31;12.13;;;7.43;;
12433;SDS011;6281;49.038;8.372;2024-01-30T09:04:58;10.47;;;7.90;;
12433;SDS011;6281;49.038;8.372;2024-01-30T09:07:25;12.03;;;8.27;;
12433;SDS011;6281;49.038;8.372;2024-01-30T09:09:52;18.13;;;10.57;;
12433;SDS011;6281;49.038;8.372;2024-01-30T09:12:18;15.90;;;10.83;;
12433;SDS011;6281;49.038;8.372;2024-01-30T09:14:47;16.20;;;10.83;;
12433;SDS011;6281;49.038;8.372;2024-01-30T09:17:13;18.03;;;11.90;;
12433;SDS011;6281;49.038;8.372;2024-01-30T09:19:40;16.43;;;11.90;;
12433;SDS011;6281;49.038;8.372;2024-01-30T09:22:07;19.70;;;10.87;;
12433;SDS011;6281;49.038;8.372;2024-01-30T09:24:34;15.00;;;9.97;;
12433;SDS011;6281;49.038;8.372;2024-01-30T09:27:01;17.97;;;11.60;;
12433;SDS011;6281;49.038;8.372;2024-01-30T09:29:27;14.30;;;10.73;;
12433;SDS011;6281;49.038;8.372;2024-01-30T09:31:55;15.27;;;10.73;;
12433;SDS011;6281;49.038;8.372;2024-01-30T09:34:23;15.37;;;10.50;;
12433;SDS011;6281;49.038;8.372;2024-01-30T09:36:49;13.80;;;10.43;;
12433;SDS011;6281;49.038;8.372;2024-01-30T09:39:16;14.20;;;10.80;;
12433;SDS011;6281;49.038;8.372;2024-01-30T09:41:45;14.73;;;10.90;;
12433;SDS011;6281;49.038;8.372;2024-01-30T09:44:15;15.43;;;11.23;;
12433;SDS011;6281;49.038;8.372;2024-01-30T09:46:42;17.00;;;11.07;;
12433;SDS011;6281;49.038;8.372;2024-01-30T09:49:13;14.87;;;10.93;;
12433;SDS011;6281;49.038;8.372;2024-01-30T09:51:40;15.33;;;11.10;;
12433;SDS011;6281;49.038;8.372;2024-01-30T09:54:07;13.67;;;10.47;;
12433;SDS011;6281;49.038;8.372;2024-01-30T09:56:35;16.43;;;10.63;;
12433;SDS011;6281;49.038;8.372;2024-01-30T09:59:02;15.83;;;11.33;;
12433;SDS011;6281;49.038;8.372;2024-01-30T10:01:29;16.53;;;9.73;;
12433;SDS011;6281;49.038;8.372;2024-01-30T10:03:57;18.30;;;10.63;;
12433;SDS011;6281;49.038;8.372;2024-01-30T10:06:25;12.87;;;9.83;;
12433;SDS011;6281;49.038;8.372;2024-01-30T10:08:53;14.73;;;10.97;;
12433;SDS011;6281;49.038;8.372;2024-01-30T10:11:20;15.23;;;11.17;;
12433;SDS011;6281;49.038;8.372;2024-01-30T10:13:47;14.57;;;10.37;;
12433;SDS011;6281;49.038;8.372;2024-01-30T10:16:15;14.53;;;11.00;;
12433;SDS011;6281;49.038;8.372;2024-01-30T10:18:41;16.13;;;11.40;;
12433;SDS011;6281;49.038;8.372;2024-01-30T10:21:08;19.03;;;11.97;;
12433;SDS011;6281;49.038;8.372;2024-01-30T10:23:37;17.73;;;12.43;;
12433;SDS011;6281;49.038;8.372;2024-01-30T10:26:04;17.63;;;12.07;;
12433;SDS011;6281;49.038;8.372;2024-01-30T10:28:33;19.40;;;12.67;;
12433;SDS011;6281;49.038;8.372;2024-01-30T10:31:00;17.27;;;11.60;;
12433;SDS011;6281;49.038;8.372;2024-01-30T10:33:28;17.60;;;12.50;;
12433;SDS011;6281;49.038;8.372;2024-01-30T10:35:56;16.53;;;12.07;;
12433;SDS011;6281;49.038;8.372;2024-01-30T10:38:26;17.33;;;12.80;;
12433;SDS011;6281;49.038;8.372;2024-01-30T10:40:57;18.63;;;12.63;;
12433;SDS011;6281;49.038;8.372;2024-01-30T10:43:28;19.67;;;13.03;;
12433;SDS011;6281;49.038;8.372;2024-01-30T10:45:58;19.30;;;12.63;;
12433;SDS011;6281;49.038;8.372;2024-01-30T10:48:38;19.77;;;12.50;;
12433;SDS011;6281;49.038;8.372;2024-01-30T10:51:09;20.13;;;13.13;;
12433;SDS011;6281;49.038;8.372;2024-01-30T10:53:37;20.90;;;12.80;;
12433;SDS011;6281;49.038;8.372;2024-01-30T10:56:06;20.87;;;12.70;;
12433;SDS011;6281;49.038;8.372;2024-01-30T10:58:36;16.43;;;11.93;;
12433;SDS011;6281;49.038;8.372;2024-01-30T11:01:03;18.13;;;12.30;;
12433;SDS011;6281;49.038;8.372;2024-01-30T11:03:32;19.80;;;12.00;;
12433;SDS011;6281;49.038;8.372;2024-01-30T11:06:01;20.77;;;12.83;;
12433;SDS011;6281;49.038;8.372;2024-01-30T11:08:31;18.73;;;14.27;;
12433;SDS011;6281;49.038;8.372;2024-01-30T11:10:58;17.47;;;13.13;;
12433;SDS011;6281;49.038;8.372;2024-01-30T11:13:30;16.43;;;12.73;;
12433;SDS011;6281;49.038;8.372;2024-01-30T11:16:00;18.60;;;13.00;;
12433;SDS011;6281;49.038;8.372;2024-01-30T11:18:28;19.13;;;13.07;;
12433;SDS011;6281;49.038;8.372;2024-01-30T11:20:56;19.13;;;12.73;;
12433;SDS011;6281;49.038;8.372;2024-01-30T11:23:26;15.90;;;11.07;;
12433;SDS011;6281;49.038;8.372;2024-01-30T11:25:53;17.70;;;12.73;;
12433;SDS011;6281;49.038;8.372;2024-01-30T11:28:21;16.07;;;12.10;;
12433;SDS011;6281;49.038;8.372;2024-01-30T11:30:50;17.93;;;12.17;;
12433;SDS011;6281;49.038;8.372;2024-01-30T11:33:26;15.40;;;11.70;;
12433;SDS011;6281;49.038;8.372;2024-01-30T11:35:55;17.77;;;12.23;;
12433;SDS011;6281;49.038;8.372;2024-01-30T11:38:24;16.73;;;12.03;;
12433;SDS011;6281;49.038;8.372;2024-01-30T11:40:53;15.23;;;10.40;;
12433;SDS011;6281;49.038;8.372;2024-01-30T11:43:20;17.27;;;12.53;;
12433;SDS011;6281;49.038;8.372;2024-01-30T11:45:47;17.97;;;12.50;;
12433;SDS011;6281;49.038;8.372;2024-01-30T11:48:15;15.80;;;11.17;;
12433;SDS011;6281;49.038;8.372;2024-01-30T11:50:43;18.10;;;11.77;;
12433;SDS011;6281;49.038;8.372;2024-01-30T11:53:10;16.77;;;11.30;;
12433;SDS011;6281;49.038;8.372;2024-01-30T11:55:37;20.53;;;13.47;;
12433;SDS011;6281;49.038;8.372;2024-01-30T11:58:04;18.73;;;11.93;;
12433;SDS011;6281;49.038;8.372;2024-01-30T12:00:31;14.93;;;11.83;;
12433;SDS011;6281;49.038;8.372;2024-01-30T12:03:00;17.97;;;12.60;;
12433;SDS011;6281;49.038;8.372;2024-01-30T12:05:28;19.07;;;12.63;;
12433;SDS011;6281;49.038;8.372;2024-01-30T12:07:55;15.27;;;11.23;;
12433;SDS011;6281;49.038;8.372;2024-01-30T12:10:23;15.90;;;12.03;;
12433;SDS011;6281;49.038;8.372;2024-01-30T12:12:51;15.33;;;11.93;;
12433;SDS011;6281;49.038;8.372;2024-01-30T12:15:18;17.23;;;12.20;;
12433;SDS011;6281;49.038;8.372;2024-01-30T12:17:47;13.67;;;10.63;;
12433;SDS011;6281;49.038;8.372;2024-01-30T12:20:17;15.57;;;11.00;;
12433;SDS011;6281;49.038;8.372;2024-01-30T12:22:46;14.47;;;10.67;;
12433;SDS011;6281;49.038;8.372;2024-01-30T12:25:15;15.23;;;10.90;;
12433;SDS011;6281;49.038;8.372;2024-01-30T12:27:43;13.37;;;10.10;;
12433;SDS011;6281;49.038;8.372;2024-01-30T12:30:11;13.83;;;9.80;;
12433;SDS011;6281;49.038;8.372;2024-01-30T12:32:40;19.30;;;10.20;;
12433;SDS011;6281;49.038;8.372;2024-01-30T12:35:08;13.53;;;10.43;;
12433;SDS011;6281;49.038;8.372;2024-01-30T12:37:37;14.00;;;9.67;;
12433;SDS011;6281;49.038;8.372;2024-01-30T12:40:05;13.30;;;9.40;;
12433;SDS011;6281;49.038;8.372;2024-01-30T12:42:33;14.30;;;9.57;;
12433;SDS011;6281;49.038;8.372;2024-01-30T12:45:00;15.33;;;9.70;;
12433;SDS011;6281;49.038;8.372;2024-01-30T12:47:28;12.23;;;9.70;;
12433;SDS011;6281;49.038;8.372;2024-01-30T12:49:55;12.13;;;9.33;;
12433;SDS011;6281;49.038;8.372;2024-01-30T12:52:22;14.20;;;9.97;;
12433;SDS011;6281;49.038;8.372;2024-01-30T12:54:51;15.13;;;9.90;;
12433;SDS011;6281;49.038;8.372;2024-01-30T12:57:19;16.23;;;9.80;;
12433;SDS011;6281;49.038;8.372;2024-01-30T12:59:46;13.23;;;8.80;;
12433;SDS011;6281;49.038;8.372;2024-01-30T13:02:13;11.57;;;8.90;;
12433;SDS011;6281;49.038;8.372;2024-01-30T13:04:41;14.43;;;9.17;;
12433;SDS011;6281;49.038;8.372;2024-01-30T13:07:08;13.17;;;9.87;;
12433;SDS011;6281;49.038;8.372;2024-01-30T13:09:35;11.37;;;9.23;;
12433;SDS011;6281;49.038;8.372;2024-01-30T13:12:04;11.83;;;8.87;;
12433;SDS011;6281;49.038;8.372;2024-01-30T13:14:32;11.57;;;8.37;;
12433;SDS011;6281;49.038;8.372;2024-01-30T13:16:59;11.30;;;8.30;;
12433;SDS011;6281;49.038;8.372;2024-01-30T13:19:26;12.83;;;9.07;;
12433;SDS011;6281;49.038;8.372;2024-01-30T13:21:53;13.33;;;8.27;;
12433;SDS011;6281;49.038;8.372;2024-01-30T13:24:20;11.20;;;9.17;;
12433;SDS011;6281;49.038;8.372;2024-01-30T13:26:47;11.67;;;8.20;;
12433;SDS011;6281;49.038;8.372;2024-01-30T13:29:16;12.20;;;8.90;;
12433;SDS011;6281;49.038;8.372;2024-01-30T13:31:43;13.07;;;8.57;;
12433;SDS011;6281;49.038;8.372;2024-01-30T13:34:11;11.10;;;7.63;;
12433;SDS011;6281;49.038;8.372;2024-01-30T13:36:38;11.27;;;7.93;;
12433;SDS011;6281;49.038;8.372;2024-01-30T13:39:07;10.73;;;8.33;;
12433;SDS011;6281;49.038;8.372;2024-01-30T13:41:35;10.17;;;8.03;;
12433;SDS011;6281;49.038;8.372;2024-01-30T13:44:01;13.20;;;8.37;;
12433;SDS011;6281;49.038;8.372;2024-01-30T13:46:30;16.83;;;8.07;;
12433;SDS011;6281;49.038;8.372;2024-01-30T13:48:58;13.50;;;8.23;;
12433;SDS011;6281;49.038;8.372;2024-01-30T13:51:25;12.00;;;8.60;;
12433;SDS011;6281;49.038;8.372;2024-01-30T13:53:52;11.43;;;7.40;;
12433;SDS011;6281;49.038;8.372;2024-01-30T13:56:18;9.80;;;7.50;;
12433;SDS011;6281;49.038;8.372;2024-01-30T13:58:45;11.97;;;7.43;;
12433;SDS011;6281;49.038;8.372;2024-01-30T14:01:14;10.63;;;7.47;;
12433;SDS011;6281;49.038;8.372;2024-01-30T14:03:42;11.17;;;7.83;;
12433;SDS011;6281;49.038;8.372;2024-01-30T14:06:09;12.67;;;8.00;;
12433;SDS011;6281;49.038;8.372;2024-01-30T14:08:36;13.40;;;7.93;;
12433;SDS011;6281;49.038;8.372;2024-01-30T14:11:03;9.33;;;7.57;;
12433;SDS011;6281;49.038;8.372;2024-01-30T14:13:30;11.53;;;7.40;;
12433;SDS011;6281;49.038;8.372;2024-01-30T14:15:57;9.37;;;7.03;;
12433;SDS011;6281;49.038;8.372;2024-01-30T14:18:24;12.30;;;7.80;;
12433;SDS011;6281;49.038;8.372;2024-01-30T14:20:53;11.17;;;7.90;;
12433;SDS011;6281;49.038;8.372;2024-01-30T14:23:20;10.13;;;7.57;;
12433;SDS011;6281;49.038;8.372;2024-01-30T14:25:47;14.17;;;7.50;;
12433;SDS011;6281;49.038;8.372;2024-01-30T14:28:14;12.47;;;7.90;;
12433;SDS011;6281;49.038;8.372;2024-01-30T14:30:41;11.33;;;6.50;;
12433;SDS011;6281;49.038;8.372;2024-01-30T14:33:08;8.60;;;6.00;;
12433;SDS011;6281;49.038;8.372;2024-01-30T14:35:35;9.50;;;6.30;;
12433;SDS011;6281;49.038;8.372;2024-01-30T14:38:03;9.83;;;6.93;;
12433;SDS011;6281;49.038;8.372;2024-01-30T14:40:32;10.57;;;6.43;;
12433;SDS011;6281;49.038;8.372;2024-01-30T14:42:59;9.13;;;6.37;;
12433;SDS011;6281;49.038;8.372;2024-01-30T14:45:26;10.87;;;6.70;;
12433;SDS011;6281;49.038;8.372;2024-01-30T14:47:53;8.20;;;6.33;;
12433;SDS011;6281;49.038;8.372;2024-01-30T14:50:21;7.37;;;5.77;;
12433;SDS011;6281;49.038;8.372;2024-01-30T14:52:48;8.20;;;5.93;;
12433;SDS011;6281;49.038;8.372;2024-01-30T14:55:16;9.67;;;6.53;;
12433;SDS011;6281;49.038;8.372;2024-01-30T14:57:43;12.00;;;6.20;;
12433;SDS011;6281;49.038;8.372;2024-01-30T15:00:11;7.97;;;5.70;;
12433;SDS011;6281;49.038;8.372;2024-01-30T15:02:40;10.10;;;6.50;;
12433;SDS011;6281;49.038;8.372;2024-01-30T15:05:07;8.60;;;6.30;;
12433;SDS011;6281;49.038;8.372;2024-01-30T15:07:36;9.50;;;5.93;;
12433;SDS011;6281;49.038;8.372;2024-01-30T15:10:03;8.10;;;6.73;;
12433;SDS011;6281;49.038;8.372;2024-01-30T15:12:32;9.30;;;5.97;;
12433;SDS011;6281;49.038;8.372;2024-01-30T15:14:59;7.67;;;6.30;;
12433;SDS011;6281;49.038;8.372;2024-01-30T15:17:25;10.67;;;6.90;;
12433;SDS011;6281;49.038;8.372;2024-01-30T15:19:52;11.47;;;6.97;;
12433;SDS011;6281;49.038;8.372;2024-01-30T15:22:20;10.27;;;7.20;;
12433;SDS011;6281;49.038;8.372;2024-01-30T15:24:47;13.87;;;6.97;;
12433;SDS011;6281;49.038;8.372;2024-01-30T15:27:14;11.77;;;7.50;;
12433;SDS011;6281;49.038;8.372;2024-01-30T15:29:42;11.53;;;7.03;;
12433;SDS011;6281;49.038;8.372;2024-01-30T15:32:09;10.03;;;6.87;;
12433;SDS011;6281;49.038;8.372;2024-01-30T15:34:36;9.13;;;7.00;;
12433;SDS011;6281;49.038;8.372;2024-01-30T15:37:03;10.93;;;7.17;;
12433;SDS011;6281;49.038;8.372;2024-01-30T15:39:30;10.20;;;7.20;;
12433;SDS011;6281;49.038;8.372;2024-01-30T15:41:57;10.37;;;7.13;;
12433;SDS011;6281;49.038;8.372;2024-01-30T15:44:27;10.23;;;7.00;;
12433;SDS011;6281;49.038;8.372;2024-01-30T15:46:57;10.90;;;7.57;;
12433;SDS011;6281;49.038;8.372;2024-01-30T15:49:24;12.27;;;7.53;;
12433;SDS011;6281;49.038;8.372;2024-01-30T15:51:51;12.27;;;7.63;;
12433;SDS011;6281;49.038;8.372;2024-01-30T15:54:18;12.17;;;7.70;;
12433;SDS011;6281;49.038;8.372;2024-01-30T15:56:45;14.13;;;8.43;;
12433;SDS011;6281;49.038;8.372;2024-01-30T15:59:12;14.77;;;8.20;;
12433;SDS011;6281;49.038;8.372;2024-01-30T16:01:39;11.80;;;7.30;;
12433;SDS011;6281;49.038;8.372;2024-01-30T16:04:08;11.43;;;7.20;;
12433;SDS011;6281;49.038;8.372;2024-01-30T16:06:35;11.17;;;8.00;;
12433;SDS011;6281;49.038;8.372;2024-01-30T16:09:02;11.60;;;7.10;;
12433;SDS011;6281;49.038;8.372;2024-01-30T16:11:29;13.20;;;7.27;;
12433;SDS011;6281;49.038;8.372;2024-01-30T16:13:57;11.27;;;7.33;;
12433;SDS011;6281;49.038;8.372;2024-01-30T16:16:23;11.00;;;7.63;;
12433;SDS011;6281;49.038;8.372;2024-01-30T16:18:51;11.73;;;7.27;;
12433;SDS011;6281;49.038;8.372;2024-01-30T16:21:19;11.67;;;7.83;;
12433;SDS011;6281;49.038;8.372;2024-01-30T16:23:46;13.30;;;7.33;;
12433;SDS011;6281;49.038;8.372;2024-01-30T16:26:14;10.20;;;7.23;;
12433;SDS011;6281;49.038;8.372;2024-01-30T16:28:40;15.20;;;7.57;;
12433;SDS011;6281;49.038;8.372;2024-01-30T16:31:07;9.63;;;6.80;;
12433;SDS011;6281;49.038;8.372;2024-01-30T16:33:34;11.73;;;6.77;;
12433;SDS011;6281;49.038;8.372;2024-01-30T16:36:01;10.67;;;6.77;;
12433;SDS011;6281;49.038;8.372;2024-01-30T16:38:30;10.40;;;7.00;;
12433;SDS011;6281;49.038;8.372;2024-01-30T16:40:57;10.63;;;6.80;;
12433;SDS011;6281;49.038;8.372;2024-01-30T16:43:24;12.07;;;6.97;;
12433;SDS011;6281;49.038;8.372;2024-01-30T16:45:51;10.93;;;6.90;;
12433;SDS011;6281;49.038;8.372;2024-01-30T16:48:18;9.83;;;6.57;;
12433;SDS011;6281;49.038;8.372;2024-01-30T16:50:47;10.00;;;6.97;;
12433;SDS011;6281;49.038;8.372;2024-01-30T16:53:14;11.33;;;6.83;;
12433;SDS011;6281;49.038;8.372;2024-01-30T16:55:43;9.60;;;6.03;;
12433;SDS011;6281;49.038;8.372;2024-01-30T16:58:10;8.60;;;6.33;;
12433;SDS011;6281;49.038;8.372;2024-01-30T17:00:37;11.83;;;6.20;;
12433;SDS011;6281;49.038;8.372;2024-01-30T17:03:04;10.00;;;6.67;;
12433;SDS011;6281;49.038;8.372;2024-01-30T17:05:31;10.23;;;6.83;;
12433;SDS011;6281;49.038;8.372;2024-01-30T17:07:58;10.47;;;7.13;;
12433;SDS011;6281;49.038;8.372;2024-01-30T17:10:25;10.17;;;6.93;;